Portada
METAR-TAF:

METAR-TAF

Aeropuertos :

Aeropuerto Internacional de Chuuk

Weno, Micronesia

latitud: 07-28N, longitud: 151-51E, altitud: 3 m

Observación

El informe se hizo hace 13 minutos, a las 02:51 UTC
Viento 6 kt del norte
Temperatura 30°C
Humedad 84%
Presión 1008 hPa
Visibilidad: 24.1 km
Escasas nubes a una altura de 1400 ft
Nubes dispersas a una altura de 12000 ft
Cielo cubierto a una altura de 28000 ft

METAR: PTKK 200251Z 35006KT 15SM FEW014 SCT120 OVC280 30/27 A2977 RMK SLP084 8/171 T02990269 57017

Hora: 13:04 (03:04 UTC)

Pronóstico

El informe se hizo hace 3 horas y 44 minutos, a las 23:20 UTC
Pronóstico válido del 20 a las 00 UTC al 20 a las 24 UTC
Viento 7 kt del oeste
Visibilidad: 10 km
Nubes dispersas a una altura de 1400 ft
Nubes dispersas a una altura de 12000 ft
Cielo nuboso a una altura de 28000 ft
chaparrones en las proximidades

TAF: PTKK 192320Z 2000/2024 27007KT P6SM VCSH SCT014 SCT120 BKN280

Observaciones y pronósticos meteorológicos de más de 4000 aeropuertos (mensajes METAR y TAF).

Los puntos amarillos y rojos representan las estaciones disponibles.

Ponga el ratón en el punto deseado para ver el nombre de la estación.

Haga clic para ver las observaciones y los pronósticos meteorológicos.

Para cambiar el mapa : haga clic en los botones verdes con una cruz de color negro para hacer un zoom, en el botón verde con un guión para alejar o en las flechas verdes para mapas adyacentes.


METAR-TAF: